1957 NOT_NAMED (1957063S10134)


IBTrACS version v04r00. Visit IBTrACS website for data access.
Please direct all questions to the IBTrACS Q and A forum

Storm track - Intensity - Wind Radii - Intensity Data - Source Data - All data

Summary Information

Storm ID 1957063S10134
Start Mar 3 23Z
Landfall Mar 5 03Z, Mar 5 09Z, Mar 7 15Z
End Mar 8 23Z
ATCF IDs ,SH251957
Track status Best track data.

Storm track plot

Map of storm track

Intensity plots

No Intensity information for this storm


Radial wind information

No radial wind information for this storm


Position and Intensity Table

BASIN ISO_TIME_________ NATURE LAT LON
degrees north degrees east
SI 1957-03-03 23:00:00 NR -9.90 133.60
SI 1957-03-04 00:00:00 TS -9.91 133.58
SI 03:00:00 TS -10.00 133.49
SI 06:00:00 TS -10.10 133.39
SI 09:00:00 TS -10.23 133.30
SI 11:00:00 TS -10.33 133.23
SI 12:00:00 TS -10.38 133.19
SI 15:00:00 TS -10.53 133.06
SI 18:00:00 TS -10.70 132.90
SI 21:00:00 TS -10.89 132.69
SI 23:00:00 TS -11.02 132.50
SI 1957-03-05 00:00:00 TS -11.09 132.40
SI 03:00:00 TS -11.25 132.03
SI 06:00:00 TS -11.40 131.60
SI 09:00:00 TS -11.52 131.12
SI 11:00:00 TS -11.58 130.78
SI 12:00:00 TS -11.61 130.61
SI 15:00:00 TS -11.67 130.08
SI 18:00:00 TS -11.71 129.57
SI 21:00:00 TS -11.75 129.08
SI 23:00:00 TS -11.79 128.81
SI 1957-03-06 00:00:00 TS -11.81 128.70
SI 03:00:00 TS -11.90 128.49
SI 06:00:00 TS -12.00 128.42
SI 09:00:00 TS -12.09 128.42
SI 11:00:00 TS -12.17 128.47
SI 12:00:00 TS -12.22 128.50
SI 15:00:00 TS -12.40 128.63
SI 18:00:00 TS -12.60 128.78
SI 21:00:00 TS -12.77 128.90
SI 23:00:00 TS -12.87 128.98
SI 1957-03-07 00:00:00 TS -12.92 129.01
SI 03:00:00 TS -13.07 129.14
SI 06:00:00 TS -13.21 129.28
SI 09:00:00 TS -13.32 129.42
SI 11:00:00 TS -13.38 129.53
SI 12:00:00 TS -13.41 129.59
SI 15:00:00 TS -13.49 129.83
SI 18:00:00 TS -13.57 130.12
SI 21:00:00 TS -13.61 130.46
SI 23:00:00 TS -13.67 130.69
SI 1957-03-08 00:00:00 TS -13.72 130.80
SI 03:00:00 TS -13.96 131.13
SI 06:00:00 TS -14.29 131.42
SI 09:00:00 TS -14.62 131.70
SI 11:00:00 TS -14.88 131.84
SI 12:00:00 TS -15.02 131.87
SI 15:00:00 TS -15.50 131.86
SI 18:00:00 TS -16.04 131.74
SI 21:00:00 NR -16.62 131.53
SI 23:00:00 NR -17.00 131.40

Source Information

Agency Information
USA bsh251957.txt
TOKYO
CMA
HKO
NEWDELHI
REUNION
BOM
NADI
WELLINGTON
DS824 s_hem.dat:710:25S
TD9636 cons_worldwide_trop_cyclone_18710101-19891231-006:Line=4945
TD9635
NEUMANN
MLC

All available IBTrACS Data

SEASON BASIN SUBBASIN ISO_TIME_________ NATURE LAT LON DIST2LAND LANDFALL IFLAG USA AGENCY USA ATCF_ID USA LAT USA LON USA SSHS DS824 LAT DS824 LON DS824 STAGE TD9636 LAT TD9636 LON TD9636 STAGE STORM SPEED STORM DIR
Year degrees north degrees east km km degrees north degrees east 1 degrees north degrees east degrees north degrees east kts degrees
1957 SI WA 1957-03-03 23:00:00 NR -9.90 133.60 184 184 __________O___ -1 -9.90 133.60 7 1 0
1957 SI WA 1957-03-04 00:00:00 TS -9.91 133.58 184 169 O________OP___ jtwc_sh SH251957 -9.90 133.60 -1 -9.90 133.60 TC -9.93 133.57 7 2 229
1957 SI WA 03:00:00 TS -10.00 133.49 169 155 P________PP___ SH251957 -9.99 133.50 -1 -9.99 133.50 TC -10.01 133.47 7 3 226
1957 SI WA 06:00:00 TS -10.10 133.39 155 141 O________OP___ jtwc_sh SH251957 -10.10 133.40 -1 -10.10 133.40 TC -10.10 133.37 7 3 219
1957 SI WA 09:00:00 TS -10.23 133.30 141 127 P________PP___ SH251957 -10.24 133.31 -1 -10.24 133.31 TC -10.21 133.27 7 3 214
1957 SI WA 11:00:00 TS -10.33 133.23 127 116 P________PO___ SH251957 -10.35 133.24 -1 -10.35 133.24 TC -10.30 133.20 1 4 216
1957 SI WA 12:00:00 TS -10.38 133.19 116 103 O________OP___ jtwc_sh SH251957 -10.40 133.20 -1 -10.40 133.20 TC -10.35 133.16 1 4 218
1957 SI WA 15:00:00 TS -10.53 133.06 103 78 P________PP___ SH251957 -10.54 133.07 -1 -10.54 133.07 TC -10.51 133.04 1 4 222
1957 SI WA 18:00:00 TS -10.70 132.90 78 49 O________OP___ jtwc_sh SH251957 -10.70 132.90 -1 -10.70 132.90 TC -10.70 132.89 1 5 226
1957 SI WA 21:00:00 TS -10.89 132.69 49 31 P________PP___ SH251957 -10.90 132.69 -1 -10.90 132.69 TC -10.88 132.68 1 6 230
1957 SI WA 23:00:00 TS -11.02 132.50 31 15 P________PO___ SH251957 -11.04 132.51 -1 -11.04 132.51 TC -11.00 132.50 1 7 236
1957 SI WA 1957-03-05 00:00:00 TS -11.09 132.40 15 0 O________OP___ jtwc_sh SH251957 -11.10 132.40 -1 -11.10 132.40 TC -11.06 132.40 1 8 243
1957 SI WA 03:00:00 TS -11.25 132.03 0 0 P________PP___ SH251957 -11.26 132.04 -1 -11.26 132.04 TC -11.23 132.03 1 8 248
1957 SI WA 06:00:00 TS -11.40 131.60 15 0 O________OP___ jtwc_sh SH251957 -11.40 131.60 -1 -11.40 131.60 TC -11.39 131.60 1 9 254
1957 SI WA 09:00:00 TS -11.52 131.12 0 0 P________PP___ SH251957 -11.51 131.11 -1 -11.51 131.11 TC -11.53 131.13 1 10 257
1957 SI WA 11:00:00 TS -11.58 130.78 0 0 P________PO___ SH251957 -11.57 130.77 -1 -11.57 130.77 TC -11.60 130.80 1 10 260
1957 SI WA 12:00:00 TS -11.61 130.61 0 0 O________OP___ jtwc_sh SH251957 -11.60 130.60 -1 -11.60 130.60 TC -11.63 130.62 1 10 263
1957 SI WA 15:00:00 TS -11.67 130.08 11 11 P________PP___ SH251957 -11.66 130.09 -1 -11.66 130.09 TC -11.69 130.06 1 10 264
1957 SI WA 18:00:00 TS -11.71 129.57 55 55 O________OP___ jtwc_sh SH251957 -11.70 129.60 -1 -11.70 129.60 TC -11.73 129.52 1 10 265
1957 SI WA 21:00:00 TS -11.75 129.08 108 108 P________PP___ SH251957 -11.74 129.10 -1 -11.74 129.10 TC -11.77 129.04 1 9 264
1957 SI WA 23:00:00 TS -11.79 128.81 141 141 P________PO___ SH251957 -11.78 128.81 -1 -11.78 128.81 TC -11.80 128.80 1 7 261
1957 SI WA 1957-03-06 00:00:00 TS -11.81 128.70 152 152 O________OP___ jtwc_sh SH251957 -11.80 128.70 -1 -11.80 128.70 TC -11.82 128.71 1 5 251
1957 SI WA 03:00:00 TS -11.90 128.49 174 174 P________PP___ SH251957 -11.89 128.48 -1 -11.89 128.48 TC -11.90 128.52 1 3 236
1957 SI WA 06:00:00 TS -12.00 128.42 186 186 O________OP___ jtwc_sh SH251957 -12.00 128.40 -1 -12.00 128.40 TC -12.00 128.45 1 2 199
1957 SI WA 09:00:00 TS -12.09 128.42 188 177 P________PP___ SH251957 -12.08 128.41 -1 -12.08 128.41 TC -12.11 128.46 1 2 161
1957 SI WA 11:00:00 TS -12.17 128.47 179 179 P________PO___ SH251957 -12.16 128.46 -1 -12.16 128.46 TC -12.20 128.50 1 3 146
1957 SI WA 12:00:00 TS -12.22 128.50 179 172 O________OP___ jtwc_sh SH251957 -12.20 128.50 -1 -12.20 128.50 TC -12.25 128.51 1 4 147
1957 SI WA 15:00:00 TS -12.40 128.63 176 147 P________PP___ SH251957 -12.39 128.64 -1 -12.39 128.64 TC -12.42 128.60 1 5 145
1957 SI WA 18:00:00 TS -12.60 128.78 147 125 O________OP___ jtwc_sh SH251957 -12.60 128.80 -1 -12.60 128.80 TC -12.60 128.74 1 5 144
1957 SI WA 21:00:00 TS -12.77 128.90 125 109 P________PP___ SH251957 -12.76 128.90 -1 -12.76 128.90 TC -12.79 128.90 1 4 144
1957 SI WA 23:00:00 TS -12.87 128.98 109 109 P________PO___ SH251957 -12.85 128.96 -1 -12.85 128.96 TC -12.90 129.00 1 4 144
1957 SI WA 1957-03-07 00:00:00 TS -12.92 129.01 109 88 O________OP___ jtwc_sh SH251957 -12.90 129.00 -1 -12.90 129.00 TC -12.95 129.03 1 4 142
1957 SI WA 03:00:00 TS -13.07 129.14 88 63 P________PP___ SH251957 -13.06 129.14 -1 -13.06 129.14 TC -13.09 129.13 1 4 138
1957 SI WA 06:00:00 TS -13.21 129.28 63 48 O________OP___ jtwc_sh SH251957 -13.20 129.30 -1 -13.20 129.30 TC -13.22 129.24 1 4 132
1957 SI WA 09:00:00 TS -13.32 129.42 48 34 P________PP___ SH251957 -13.31 129.44 -1 -13.31 129.44 TC -13.33 129.38 1 4 126
1957 SI WA 11:00:00 TS -13.38 129.53 34 24 P________PO___ SH251957 -13.37 129.54 -1 -13.37 129.54 TC -13.40 129.50 1 4 118
1957 SI WA 12:00:00 TS -13.41 129.59 24 0 O________OP___ jtwc_sh SH251957 -13.40 129.60 -1 -13.40 129.60 TC -13.42 129.58 1 5 111
1957 SI WA 15:00:00 TS -13.49 129.83 0 0 P________PP___ SH251957 -13.51 129.82 -1 -13.51 129.82 TC -13.47 129.85 1 5 108
1957 SI WA 18:00:00 TS -13.57 130.12 0 0 O________OP___ jtwc_sh SH251957 -13.60 130.10 -1 -13.60 130.10 TC -13.52 130.16 1 6 101
1957 SI WA 21:00:00 TS -13.61 130.46 0 0 P________PP___ SH251957 -13.62 130.44 -1 -13.62 130.44 TC -13.60 130.49 1 7 100
1957 SI WA 23:00:00 TS -13.67 130.69 0 0 P________PO___ SH251957 -13.66 130.68 -1 -13.66 130.68 TC -13.70 130.70 1 7 107
1957 SI WA 1957-03-08 00:00:00 TS -13.72 130.80 0 0 O________OP___ jtwc_sh SH251957 -13.70 130.80 -1 -13.70 130.80 TC -13.76 130.81 1 8 124
1957 SI WA 03:00:00 TS -13.96 131.13 0 0 P________PP___ SH251957 -13.95 131.11 -1 -13.95 131.11 TC -13.98 131.16 1 8 134
1957 SI WA 06:00:00 TS -14.29 131.42 0 0 O________OP___ jtwc_sh SH251957 -14.30 131.40 -1 -14.30 131.40 TC -14.27 131.47 1 9 140
1957 SI WA 09:00:00 TS -14.62 131.70 0 0 P________PP___ SH251957 -14.62 131.70 -1 -14.62 131.70 TC -14.63 131.70 1 9 146
1957 SI WA 11:00:00 TS -14.88 131.84 0 0 P________PO___ SH251957 -14.86 131.85 -1 -14.86 131.85 TC -14.90 131.80 1 9 158
1957 SI WA 12:00:00 TS -15.02 131.87 0 0 O________OP___ jtwc_sh SH251957 -15.00 131.90 -1 -15.00 131.90 TC -15.05 131.82 1 9 0
1957 SI WA 15:00:00 TS -15.50 131.86 0 0 P________PP___ SH251957 -15.47 131.91 -1 -15.47 131.91 TC -15.53 131.81 1 10 187
1957 SI WA 18:00:00 TS -16.04 131.74 0 0 O________OP___ jtwc_sh SH251957 -16.00 131.80 -1 -16.00 131.80 TC -16.06 131.70 1 12 196
1957 SI WA 21:00:00 NR -16.62 131.53 0 0 __________P___ SH251957 -1 TC -16.62 131.53 1 12 199
1957 SI WA 23:00:00 NR -17.00 131.40 0 __________O___ SH251957 -1 TC -17.00 131.40 1 12 198